Latest Weather Observations for Toolara

IDQ60901

Issued at 3:21 am EST Saturday 20 December 2014 (issued every 10 minutes, with the page automatically refreshed every 10 minutes)

About weather observations | Map of Brisbane area stations | Latest observations for Brisbane area | Other Formats
Station Details ID: 040555 Name: TOOLARA (KELLY) Lat: -25.97 Lon: 152.86 Height: 143.0 m
Data from the previous 72 hours. | See also: Recent months at Toolara
Date/Time
EST
Tmp

°C
App
Tmp
°C
Dew
Point
°C
Rel
Hum
%
Delta-T

°C
Wind Press
QNH
hPa
Press
MSL
hPa
Rain
since
9 am
mm
Dir
 
Spd
km/h
Gust
km/h
Spd
kts
Gust
kts
20/03:00am 21.0 - 21.0 100 0.0 - - - - - - - 0.0
20/02:30am 21.1 - 21.1 100 0.0 - - - - - - - -
20/02:00am 21.2 - 21.0 99 0.1 - - - - - - - -
20/01:30am 21.6 - 21.3 98 0.2 - - - - - - - -
20/01:00am 21.7 - 20.9 95 0.5 - - - - - - - -
20/12:30am 21.4 - 20.6 95 0.5 - - - - - - - -
20/12:00am 21.7 24.2 20.3 92 0.9 - 7 7 4 4 - - -
 
Date/Time
EST
Tmp

°C
App
Tmp
°C
Dew
Point
°C
Rel
Hum
%
Delta-T

°C
Wind Press
QNH
hPa
Press
MSL
hPa
Rain
since
9 am
mm
Dir
 
Spd
km/h
Gust
km/h
Spd
kts
Gust
kts
19/11:30pm 21.6 - 19.7 89 1.2 - - - - - - - -
19/11:00pm 22.5 - 19.9 85 1.7 - - - - - - - -
19/10:30pm 22.9 - 20.2 85 1.8 - - - - - - - -
19/10:00pm 22.7 - 21.0 90 1.1 - - - - - - - -
19/09:30pm 22.8 - 21.3 91 1.0 - - - - - - - -
19/09:00pm 23.1 - 22.1 94 0.7 - - - - - - - 0.0
19/08:30pm 23.1 - 21.7 92 0.9 - - - - - - - -
19/08:00pm 23.6 - 21.3 87 1.5 - - - - - - - -
19/07:30pm 23.9 26.4 21.0 84 1.9 - 9 13 5 7 - - -
19/07:00pm 24.5 26.5 20.8 80 2.4 - 11 13 6 7 - - -
19/06:30pm 25.3 27.5 20.5 75 3.2 - 9 11 5 6 - - -
19/06:00pm 26.6 29.1 20.2 68 4.2 - 7 9 4 5 - - -
19/05:30pm 27.8 - 19.3 60 5.5 - - - - - - - -
19/05:00pm 29.3 - 17.2 48 7.7 - - - - - - - -
19/04:30pm 30.2 - 17.3 46 8.2 - - - - - - - -
19/04:00pm 30.7 - 17.0 43 8.7 - - - - - - - -
19/03:30pm 31.4 - 18.4 46 8.4 - - - - - - - -
19/03:00pm 32.3 34.3 19.9 48 8.2 - 9 13 5 7 - - 0.0
19/02:30pm 31.9 - 21.4 53 7.1 - - - - - - - -
19/02:00pm 31.5 34.2 22.2 57 6.4 - 11 17 6 9 - - -
19/01:30pm 30.2 - 21.6 60 5.8 - - - - - - - -
19/01:00pm 29.4 - 21.9 64 5.1 - - - - - - - -
19/12:30pm 27.7 - 21.7 70 4.0 - - - - - - - -
19/12:00pm 26.9 - 22.9 79 2.7 - - - - - - - -
19/11:30am 26.0 - 22.9 83 2.1 - - - - - - - -
19/11:00am 24.3 - 23.4 95 0.6 - - - - - - - -
19/10:30am 22.5 - 22.5 100 0.0 - - - - - - - -
19/10:00am 21.4 - 21.4 100 0.0 - - - - - - - -
19/09:30am 21.2 - 21.2 100 0.0 - - - - - - - -
19/09:00am 20.5 - 20.5 100 0.0 - - - - - - - 34.0
19/08:30am 20.8 23.6 20.8 100 0.0 - 7 9 4 5 - - -
19/08:00am 20.4 - 20.4 100 0.0 - - - - - - - -
19/07:30am 20.4 - 20.4 100 0.0 - - - - - - - -
19/07:00am 19.9 - 19.9 100 0.0 - - - - - - - -
19/06:30am 19.9 - 19.9 100 0.0 - - - - - - - -
19/06:00am 19.8 23.4 19.8 100 0.0 CALM 0 0 0 0 - - -
19/05:30am 19.8 - 19.8 100 0.0 - - - - - - - -
19/05:00am 19.6 - 19.6 100 0.0 - - - - - - - -
19/04:30am 19.7 - 19.7 100 0.0 - - - - - - - -
19/04:00am 19.7 - 19.7 100 0.0 - - - - - - - -
19/03:30am 19.7 - 19.7 100 0.0 - - - - - - - -
19/03:00am 19.8 - 19.8 100 0.0 - - - - - - - 30.0
19/02:30am 20.2 - 20.2 100 0.0 - - - - - - - -
19/02:00am 20.7 - 20.7 100 0.0 - - - - - - - -
19/01:30am 21.2 - 21.2 100 0.0 - - - - - - - -
19/01:00am 21.6 - 21.6 100 0.0 - - - - - - - -
19/12:30am 21.8 - 21.8 100 0.0 - - - - - - - -
19/12:00am 21.9 - 21.9 100 0.0 - - - - - - - -
 
Date/Time
EST
Tmp

°C
App
Tmp
°C
Dew
Point
°C
Rel
Hum
%
Delta-T

°C
Wind Press
QNH
hPa
Press
MSL
hPa
Rain
since
9 am
mm
Dir
 
Spd
km/h
Gust
km/h
Spd
kts
Gust
kts
18/11:30pm 21.9 - 21.9 100 0.0 - - - - - - - -
18/11:00pm 21.8 - 21.3 97 0.3 - - - - - - - -
18/10:30pm 22.1 - 21.1 94 0.7 - - - - - - - -
18/10:00pm 22.3 - 20.0 87 1.5 - - - - - - - -
18/09:30pm 24.0 - 19.9 78 2.7 - - - - - - - -
18/09:00pm 24.3 - 19.8 76 2.9 - - - - - - - 0.0
18/08:30pm 24.6 - 19.4 73 3.4 - - - - - - - -
18/08:00pm 25.4 - 19.8 71 3.6 - - - - - - - -
18/07:30pm 25.5 - 20.1 72 3.5 - - - - - - - -
18/07:00pm 25.4 - 19.5 70 3.8 - - - - - - - -
18/06:30pm 25.6 - 19.5 69 4.0 - - - - - - - -
18/06:00pm 26.0 - 19.2 66 4.4 - - - - - - - -
18/05:30pm 26.6 - 19.7 66 4.5 - - - - - - - -
18/05:00pm 27.3 - 19.4 62 5.1 - - - - - - - -
18/04:30pm 28.0 - 19.2 58 5.7 - - - - - - - -
18/04:00pm 28.6 - 19.0 56 6.2 - - - - - - - -
18/03:30pm 29.5 - 19.5 55 6.6 - - - - - - - -
18/03:00pm 30.5 - 19.2 51 7.4 - - - - - - - 0.2
18/02:30pm 31.8 - 19.8 49 8.0 - - - - - - - -
18/02:00pm 32.5 - 19.4 46 8.7 - - - - - - - -
18/01:30pm 33.2 - 20.4 47 8.6 - - - - - - - -
18/01:00pm 33.2 - 21.0 48 8.2 - - - - - - - -
18/12:30pm 33.4 - 20.9 48 8.4 - - - - - - - -
18/12:00pm 32.7 - 21.5 51 7.6 - - - - - - - -
18/11:30am 32.9 - 23.2 56 6.7 - - - - - - - -
18/11:00am 32.3 - 23.5 59 6.1 - - - - - - - -
18/10:30am 31.0 - 23.6 64 5.1 - - - - - - - -
18/10:00am 30.4 - 23.6 67 4.7 - - - - - - - -
18/09:30am 29.4 - 23.6 71 4.0 - - - - - - - -
18/09:00am 30.0 - 24.9 74 3.6 - - - - - - - 43.0
18/08:30am 28.1 - 23.9 78 2.9 - - - - - - - -
18/08:00am 26.7 - 22.8 79 2.7 - - - - - - - -
18/07:30am 25.4 - 22.1 82 2.2 - - - - - - - -
18/07:00am 23.8 - 20.9 84 1.9 - - - - - - - -
18/06:30am 22.3 - 19.7 85 1.7 - - - - - - - -
18/06:00am 21.5 - 18.7 84 1.8 - - - - - - - -
18/05:30am 21.3 - 18.3 83 1.9 - - - - - - - -
18/05:00am 22.4 - 19.2 82 2.0 - - - - - - - -
18/04:30am 22.5 - 19.1 81 2.2 - - - - - - - -
18/04:00am 21.9 - 17.9 78 2.5 - - - - - - - -
18/03:30am 22.1 - 18.1 78 2.5 - - - - - - - -
18/03:00am 21.6 - 17.6 78 2.5 - - - - - - - 0.0
18/02:30am 21.5 - 17.5 78 2.5 - - - - - - - -
18/02:00am 21.4 - 17.8 80 2.2 - - - - - - - -
18/01:30am 21.7 - 18.1 80 2.3 - - - - - - - -
18/01:00am 20.7 - 18.1 85 1.6 - - - - - - - -
18/12:30am 20.4 - 17.6 84 1.7 - - - - - - - -
18/12:00am 20.3 - 17.3 83 1.8 - - - - - - - -
 
Date/Time
EST
Tmp

°C
App
Tmp
°C
Dew
Point
°C
Rel
Hum
%
Delta-T

°C
Wind Press
QNH
hPa
Press
MSL
hPa
Rain
since
9 am
mm
Dir
 
Spd
km/h
Gust
km/h
Spd
kts
Gust
kts
17/11:30pm 20.6 - 17.0 80 2.2 - - - - - - - -
17/11:00pm 22.0 - 17.4 75 2.9 - - - - - - - -
17/10:30pm 22.5 - 17.0 71 3.4 - - - - - - - -
17/10:00pm 23.2 - 17.2 69 3.7 - - - - - - - -
17/09:30pm 22.0 - 17.6 76 2.7 - - - - - - - -
17/09:00pm 21.6 - 18.0 80 2.2 - - - - - - - 43.0
17/08:30pm 21.1 - 18.5 85 1.6 - - - - - - - -
17/08:00pm 19.5 - 18.0 91 0.9 - - - - - - - -
17/07:30pm 18.4 - 16.0 86 1.4 - - - - - - - -
17/07:00pm 20.7 - 15.5 72 3.1 - - - - - - - -
17/06:59pm 21.5 - 15.6 69 3.5 - - - - - - - -
17/06:30pm 27.4 - 21.9 72 3.7 - - - - - - - -
17/06:00pm 28.1 - 21.4 67 4.5 - - - - - - - -
17/05:30pm 28.4 - 21.2 65 4.8 - - - - - - - -
17/05:00pm 28.4 - 19.3 57 5.9 - - - - - - - -
17/04:30pm 30.7 - 22.6 62 5.6 - - - - - - - -
17/04:00pm 32.0 - 22.7 58 6.4 - - - - - - - -
17/03:30pm 33.6 - 22.1 51 7.9 - - - - - - - -
17/03:00pm 35.8 - 20.9 42 10.1 - - - - - - - 0.0
17/02:30pm 37.5 - 17.0 30 13.3 - - - - - - - -
17/02:00pm 37.1 - 17.6 31 12.7 - - - - - - - -
17/01:30pm 36.6 - 19.1 35 11.6 - - - - - - - -
17/01:00pm 36.2 - 19.2 37 11.3 - - - - - - - -
17/12:30pm 35.6 - 20.7 41 10.1 - - - - - - - -
17/12:00pm 33.9 - 20.3 45 9.1 - - - - - - - -
17/11:30am 34.7 - 23.4 52 7.9 - - - - - - - -
17/11:00am 33.2 - 22.9 54 7.1 - - - - - - - -
17/10:30am 32.4 - 23.6 59 6.1 - - - - - - - -
17/10:00am 31.0 - 23.9 66 5.0 - - - - - - - -
17/09:30am 28.6 - 23.7 75 3.4 - - - - - - - -
17/09:00am 28.5 - 24.7 80 2.7 - - - - - - - 0.0
17/08:30am 26.5 - 24.2 87 1.6 - - - - - - - -
17/08:00am 25.7 - 24.7 94 0.7 - - - - - - - -
17/07:30am 24.9 - 24.9 100 0.0 - - - - - - - -
17/07:00am 23.6 - 23.6 100 0.0 - - - - - - - -
17/06:30am 22.9 - 22.9 100 0.0 - - - - - - - -
17/06:00am 22.6 - 22.6 100 0.0 - - - - - - - -
17/05:30am 22.8 - 22.8 100 0.0 - - - - - - - -
17/05:00am 22.7 - 22.7 100 0.0 - - - - - - - -
17/04:30am 22.4 - 22.4 100 0.0 - - - - - - - -
17/04:00am 22.4 - 22.4 100 0.0 - - - - - - - -
17/03:30am 22.3 - 22.3 100 0.0 - - - - - - - -

Latest Capital City Observations: Canberra | Sydney | Melbourne | Brisbane | Adelaide | Perth | Hobart | Darwin

Other Formats:

Comma delimited format used in spreadsheet applications
http://www.bom.gov.au/fwo/IDQ60901/IDQ60901.94558.axf

JavaScript Object Notation format (JSON) in row-major order
http://www.bom.gov.au/fwo/IDQ60901/IDQ60901.94558.json